createdAt,value
2019-02-20T00:00:13.139Z,69.07
2019-02-20T00:02:42.034Z,68.93
2019-02-20T00:05:10.729Z,68.44
2019-02-20T00:07:39.122Z,68.46
2019-02-20T00:10:08.204Z,68.38
2019-02-20T00:12:36.706Z,68.34
2019-02-20T00:15:06.481Z,68.75
2019-02-20T00:17:35.125Z,68.75
2019-02-20T00:20:04.694Z,68.75
2019-02-20T00:22:40.010Z,68.73
2019-02-20T00:25:03.489Z,68.89
2019-02-20T00:27:31.866Z,68.84
2019-02-20T00:30:00.388Z,69.10
2019-02-20T00:32:28.829Z,69.49
2019-02-20T00:34:57.236Z,69.47
2019-02-20T00:37:25.630Z,69.50
2019-02-20T00:39:54.012Z,69.73
2019-02-20T00:42:22.481Z,69.97
2019-02-20T00:44:55.010Z,70.31
2019-02-20T00:47:25.573Z,70.37
2019-02-20T00:49:53.973Z,70.55
2019-02-20T00:52:24.006Z,70.30
2019-02-20T00:54:52.398Z,70.39
2019-02-20T00:57:21.262Z,70.49
2019-02-20T00:59:49.659Z,70.32
2019-02-20T01:02:18.056Z,70.21
2019-02-20T01:04:46.465Z,70.04
2019-02-20T01:07:14.861Z,70.24
2019-02-20T01:09:43.530Z,70.37
2019-02-20T01:12:11.998Z,70.58
2019-02-20T01:14:40.398Z,70.73
2019-02-20T01:17:08.784Z,70.63
2019-02-20T01:19:37.237Z,70.60
2019-02-20T01:22:05.743Z,70.68
2019-02-20T01:24:34.134Z,70.65
2019-02-20T01:27:02.530Z,70.42
2019-02-20T01:29:31.685Z,70.25
2019-02-20T01:32:00.086Z,70.08
2019-02-20T01:34:28.590Z,70.36
2019-02-20T01:36:57.233Z,70.45
2019-02-20T01:39:25.622Z,70.47
2019-02-20T01:41:54.040Z,70.40
2019-02-20T01:44:22.417Z,70.49
2019-02-20T01:46:50.869Z,70.42
2019-02-20T01:49:19.640Z,70.49
2019-02-20T01:51:48.025Z,70.85
2019-02-20T01:54:16.440Z,71.08
2019-02-20T01:56:45.696Z,71.14
2019-02-20T01:59:14.282Z,71.09
2019-02-20T02:01:42.671Z,71.13
2019-02-20T02:04:11.142Z,70.85
2019-02-20T02:06:39.524Z,70.88
2019-02-20T02:09:08.167Z,70.69
2019-02-20T02:11:36.548Z,70.88
2019-02-20T02:14:05.030Z,71.04
2019-02-20T02:16:33.650Z,71.07
2019-02-20T02:19:02.055Z,71.37
2019-02-20T02:21:30.423Z,71.25
2019-02-20T02:23:58.831Z,71.12
2019-02-20T02:26:27.457Z,71.04
2019-02-20T02:28:55.837Z,71.08
2019-02-20T02:31:24.541Z,71.05
2019-02-20T02:33:53.234Z,70.98
2019-02-20T02:36:21.619Z,71.00
2019-02-20T02:38:50.298Z,70.77
2019-02-20T02:41:18.681Z,70.95
2019-02-20T02:43:47.083Z,71.10
2019-02-20T02:46:15.872Z,70.94
2019-02-20T02:48:44.260Z,71.22
2019-02-20T02:51:12.910Z,71.28
2019-02-20T02:53:41.303Z,71.23
2019-02-20T02:56:10.104Z,71.11
2019-02-20T02:58:38.486Z,71.12
2019-02-20T03:01:06.873Z,71.23
2019-02-20T03:03:35.545Z,71.18
2019-02-20T03:06:03.988Z,71.30
2019-02-20T03:08:32.462Z,71.42
2019-02-20T03:11:00.967Z,71.42
2019-02-20T03:13:29.423Z,71.32
2019-02-20T03:15:57.837Z,71.37
2019-02-20T03:18:26.244Z,71.23
2019-02-20T03:20:54.714Z,71.13
2019-02-20T03:23:23.190Z,70.94
2019-02-20T03:25:51.565Z,70.77
2019-02-20T03:28:20.043Z,70.71
2019-02-20T03:30:48.541Z,70.56
2019-02-20T03:33:17.127Z,70.57
2019-02-20T03:35:45.570Z,70.40
2019-02-20T03:38:13.951Z,70.35
2019-02-20T03:40:42.339Z,70.32
2019-02-20T03:43:10.727Z,70.30
2019-02-20T03:45:39.516Z,70.11
2019-02-20T03:48:07.996Z,70.04
2019-02-20T03:50:36.382Z,69.82
2019-02-20T03:53:04.771Z,69.87
2019-02-20T03:55:33.430Z,70.11
2019-02-20T03:58:01.803Z,70.16
2019-02-20T04:00:30.440Z,70.11
2019-02-20T04:02:58.820Z,70.18
2019-02-20T04:05:27.199Z,70.04
2019-02-20T04:07:55.605Z,70.03
2019-02-20T04:10:23.988Z,70.06
2019-02-20T04:12:52.388Z,69.76
2019-02-20T04:15:21.014Z,69.75
2019-02-20T04:17:49.456Z,69.76
2019-02-20T04:20:18.115Z,69.97
2019-02-20T04:22:46.512Z,69.92
2019-02-20T04:25:14.896Z,69.79
2019-02-20T04:27:43.287Z,69.79
2019-02-20T04:30:11.767Z,69.66
2019-02-20T04:32:40.161Z,69.35
2019-02-20T04:35:08.545Z,69.21
2019-02-20T04:37:36.945Z,69.42
2019-02-20T04:40:06.745Z,69.33
2019-02-20T04:42:35.097Z,69.49
2019-02-20T04:45:03.570Z,69.28
2019-02-20T04:47:31.958Z,69.23
2019-02-20T04:50:01.743Z,69.22
2019-02-20T04:52:30.116Z,69.17
2019-02-20T04:54:58.765Z,69.11
2019-02-20T04:57:27.173Z,68.79
2019-02-20T04:59:55.548Z,68.85
2019-02-20T05:02:24.061Z,68.92
2019-02-20T05:04:52.520Z,68.82
2019-02-20T05:07:20.866Z,68.73
2019-02-20T05:09:49.270Z,68.71
2019-02-20T05:12:17.677Z,68.76
2019-02-20T05:14:46.188Z,68.97
2019-02-20T05:17:14.578Z,68.85
2019-02-20T05:19:42.959Z,68.98
2019-02-20T05:22:11.384Z,69.08
2019-02-20T05:24:39.764Z,69.16
2019-02-20T05:27:08.144Z,69.09
2019-02-20T05:29:36.964Z,68.85
2019-02-20T05:32:05.349Z,68.75
2019-02-20T05:34:33.737Z,68.95
2019-02-20T05:37:02.416Z,68.87
2019-02-20T05:39:30.806Z,68.85
2019-02-20T05:41:59.202Z,68.78
2019-02-20T05:44:27.788Z,68.71
2019-02-20T05:46:56.177Z,68.82
2019-02-20T05:49:24.572Z,68.99
2019-02-20T05:51:53.305Z,69.05
2019-02-20T05:54:21.703Z,69.06
2019-02-20T05:56:50.085Z,69.13
2019-02-20T05:59:18.489Z,69.15
2019-02-20T06:01:46.958Z,69.08
2019-02-20T06:04:15.351Z,69.35
2019-02-20T06:06:43.747Z,69.42
2019-02-20T06:09:12.135Z,69.32
2019-02-20T06:11:40.539Z,69.46
2019-02-20T06:14:09.012Z,70.02
2019-02-20T06:16:37.493Z,70.05
2019-02-20T06:19:05.985Z,70.47
2019-02-20T06:21:34.467Z,70.56
2019-02-20T06:24:02.861Z,70.59
2019-02-20T06:26:31.245Z,70.68
2019-02-20T06:28:59.919Z,70.97
2019-02-20T06:31:28.298Z,70.85
2019-02-20T06:33:56.689Z,71.03
2019-02-20T06:36:25.196Z,70.96
2019-02-20T06:38:53.905Z,70.88
2019-02-20T06:41:22.522Z,71.04
2019-02-20T06:43:50.904Z,70.98
2019-02-20T06:46:19.295Z,71.14
2019-02-20T06:48:48.048Z,71.01
2019-02-20T06:51:16.449Z,71.09
2019-02-20T06:53:44.845Z,70.99
2019-02-20T06:56:13.426Z,71.32
2019-02-20T06:58:42.048Z,71.35
2019-02-20T07:01:10.433Z,71.41
2019-02-20T07:03:38.845Z,71.21
2019-02-20T07:06:19.338Z,71.13
2019-02-20T07:09:11.952Z,71.13
2019-02-20T07:11:49.402Z,71.32
2019-02-20T07:14:40.952Z,70.98
2019-02-20T07:17:21.563Z,71.04
2019-02-20T07:20:09.565Z,70.78
2019-02-20T07:22:44.567Z,70.62
2019-02-20T07:25:16.210Z,70.58
2019-02-20T07:28:02.967Z,70.49
2019-02-20T07:30:31.406Z,70.35
2019-02-20T07:32:59.744Z,69.99
2019-02-20T07:35:28.227Z,69.96
2019-02-20T07:37:56.886Z,69.75
2019-02-20T07:40:25.532Z,69.82
2019-02-20T07:42:53.925Z,69.56
2019-02-20T07:45:22.406Z,69.30
2019-02-20T07:47:50.884Z,69.05
2019-02-20T07:50:19.460Z,68.94
2019-02-20T07:52:47.860Z,68.76
2019-02-20T07:55:16.325Z,68.56
2019-02-20T07:57:45.030Z,68.56
2019-02-20T08:00:15.216Z,68.39
2019-02-20T08:02:43.621Z,68.58
2019-02-20T08:05:12.157Z,68.59
2019-02-20T08:07:40.784Z,68.50
2019-02-20T08:10:11.345Z,68.58
2019-02-20T08:12:39.749Z,68.28
2019-02-20T08:15:10.582Z,68.31
2019-02-20T08:17:39.544Z,67.73
2019-02-20T08:20:10.423Z,67.68
2019-02-20T08:22:39.043Z,66.90
2019-02-20T08:25:07.907Z,66.65
2019-02-20T08:27:36.301Z,66.67
2019-02-20T08:30:10.512Z,66.60
2019-02-20T08:32:38.895Z,66.04
2019-02-20T08:35:09.119Z,65.70
2019-02-20T08:37:37.521Z,65.60
2019-02-20T08:40:09.264Z,65.60
2019-02-20T08:42:37.640Z,65.60
2019-02-20T08:45:07.480Z,65.44
2019-02-20T08:47:36.110Z,65.20
2019-02-20T08:50:09.303Z,64.97
2019-02-20T08:52:37.707Z,64.88
2019-02-20T08:55:08.450Z,64.88
2019-02-20T08:57:37.089Z,63.66
2019-02-20T09:00:11.400Z,63.54
2019-02-20T09:02:40.014Z,63.91
2019-02-20T09:05:10.354Z,64.02
2019-02-20T09:07:38.971Z,62.79
2019-02-20T09:10:10.360Z,62.79
2019-02-20T09:12:38.972Z,62.58
2019-02-20T09:15:13.141Z,62.28
2019-02-20T09:17:41.784Z,62.05
2019-02-20T09:20:11.632Z,62.05
2019-02-20T09:22:40.024Z,60.96
2019-02-20T09:25:19.219Z,60.54
2019-02-20T09:27:40.572Z,61.60
2019-02-20T09:30:15.546Z,59.66
2019-02-20T09:32:43.950Z,59.34
2019-02-20T09:35:12.678Z,59.34
2019-02-20T09:37:41.083Z,58.35
2019-02-20T09:40:14.817Z,58.16
2019-02-20T09:42:44.957Z,58.30
2019-02-20T09:45:13.609Z,58.30
2019-02-20T09:47:41.997Z,58.13
2019-02-20T09:50:11.166Z,57.82
2019-02-20T09:52:39.552Z,57.89
2019-02-20T09:55:11.158Z,57.06
2019-02-20T09:57:39.599Z,57.36
2019-02-20T10:00:19.681Z,57.28
2019-02-20T10:02:48.137Z,56.35
2019-02-20T10:05:16.547Z,56.04
2019-02-20T10:07:44.958Z,55.67
2019-02-20T10:10:13.607Z,54.08
2019-02-20T10:12:42.001Z,54.83
2019-02-20T10:15:15.861Z,53.56
2019-02-20T10:17:44.261Z,53.57
2019-02-20T10:20:12.923Z,53.04
2019-02-20T10:22:41.287Z,51.52
2019-02-20T10:25:11.735Z,50.13
2019-02-20T10:27:40.109Z,49.98
2019-02-20T10:30:19.479Z,49.34
2019-02-20T10:32:47.868Z,48.77
2019-02-20T10:35:16.255Z,49.07
2019-02-20T10:37:44.660Z,50.15
2019-02-20T10:40:13.414Z,50.83
2019-02-20T10:42:41.803Z,49.45
2019-02-20T10:45:11.836Z,49.17
2019-02-20T10:47:40.253Z,48.65
2019-02-20T10:50:11.304Z,47.24
2019-02-20T10:52:39.816Z,48.29
2019-02-20T10:55:10.048Z,47.35
2019-02-20T10:57:38.930Z,46.56
2019-02-20T11:00:24.604Z,46.59
2019-02-20T11:02:53.600Z,47.47
2019-02-20T11:05:22.381Z,46.65
2019-02-20T11:07:51.071Z,45.63
2019-02-20T11:10:19.481Z,46.14
2019-02-20T11:12:47.902Z,45.09
2019-02-20T11:15:16.627Z,46.16
2019-02-20T11:17:45.034Z,46.06
2019-02-20T11:20:13.865Z,46.35
2019-02-20T11:22:42.571Z,46.99
2019-02-20T11:25:12.693Z,47.93
2019-02-20T11:27:41.385Z,47.81
2019-02-20T11:30:18.450Z,47.62
2019-02-20T11:32:47.146Z,47.41
2019-02-20T11:35:15.531Z,47.67
2019-02-20T11:37:44.216Z,48.18
2019-02-20T11:40:12.683Z,47.53
2019-02-20T11:42:41.078Z,47.35
2019-02-20T11:45:14.492Z,47.29
2019-02-20T11:47:42.898Z,47.79
2019-02-20T11:50:12.127Z,48.68
2019-02-20T11:52:40.712Z,47.64
2019-02-20T11:55:10.955Z,47.61
2019-02-20T11:57:39.352Z,48.31
2019-02-20T12:00:19.071Z,47.22
2019-02-20T12:02:47.767Z,47.19
2019-02-20T12:05:16.177Z,46.26
2019-02-20T12:07:44.928Z,47.04
2019-02-20T12:10:16.605Z,47.13
2019-02-20T12:12:45.393Z,46.04
2019-02-20T12:15:13.860Z,46.67
2019-02-20T12:17:42.247Z,47.08
2019-02-20T12:20:11.508Z,46.16
2019-02-20T12:22:40.128Z,46.15
2019-02-20T12:25:09.872Z,46.96
2019-02-20T12:27:38.333Z,46.14
2019-02-20T12:30:08.968Z,46.75
2019-02-20T12:32:37.365Z,46.53
2019-02-20T12:35:07.692Z,45.41
2019-02-20T12:37:36.338Z,45.82
2019-02-20T12:40:07.299Z,46.21
2019-02-20T12:42:35.963Z,46.21
2019-02-20T12:45:06.185Z,45.94
2019-02-20T12:47:34.833Z,45.21
2019-02-20T12:50:03.457Z,44.52
2019-02-20T12:52:32.080Z,44.23
2019-02-20T12:55:00.478Z,44.50
2019-02-20T12:57:28.935Z,43.77
2019-02-20T12:59:57.356Z,43.82
2019-02-20T13:02:25.740Z,44.16
2019-02-20T13:04:54.145Z,44.01
2019-02-20T13:07:23.126Z,43.38
2019-02-20T13:09:51.502Z,42.72
2019-02-20T13:12:20.194Z,43.27
2019-02-20T13:14:48.609Z,43.68
2019-02-20T13:17:17.033Z,43.27
2019-02-20T13:19:45.420Z,42.67
2019-02-20T13:22:13.823Z,42.75
2019-02-20T13:24:43.918Z,43.76
2019-02-20T13:27:12.537Z,44.31
2019-02-20T13:29:41.813Z,43.72
2019-02-20T13:32:10.208Z,43.53
2019-02-20T13:34:38.881Z,43.32
2019-02-20T13:37:07.566Z,43.11
2019-02-20T13:39:35.962Z,43.45
2019-02-20T13:42:04.376Z,42.96
2019-02-20T13:44:33.043Z,43.70
2019-02-20T13:47:01.432Z,43.76
2019-02-20T13:49:29.837Z,43.91
2019-02-20T13:51:58.220Z,43.44
2019-02-20T13:54:26.793Z,43.95
2019-02-20T13:57:01.662Z,42.83
2019-02-20T13:59:25.292Z,42.49
2019-02-20T14:01:54.153Z,43.27
2019-02-20T14:04:22.545Z,43.84
2019-02-20T14:06:50.936Z,44.09
2019-02-20T14:09:19.345Z,43.92
2019-02-20T14:11:47.739Z,44.11
2019-02-20T14:14:16.790Z,45.09
2019-02-20T14:16:46.826Z,44.84
2019-02-20T14:19:15.591Z,44.30
2019-02-20T14:21:43.985Z,45.12
2019-02-20T14:24:12.386Z,45.06
2019-02-20T14:26:40.798Z,45.10
2019-02-20T14:29:09.459Z,45.11
2019-02-20T14:31:38.306Z,44.74
2019-02-20T14:34:06.693Z,44.33
2019-02-20T14:36:35.421Z,44.67
2019-02-20T14:39:05.552Z,45.11
2019-02-20T14:41:33.906Z,44.86
2019-02-20T14:44:02.740Z,45.14
2019-02-20T14:46:31.121Z,45.33
2019-02-20T14:48:59.774Z,45.77
2019-02-20T14:51:28.615Z,45.89
2019-02-20T14:53:57.012Z,45.52
2019-02-20T14:56:25.489Z,45.82
2019-02-20T14:58:54.208Z,45.29
2019-02-20T15:01:22.659Z,45.42
2019-02-20T15:03:51.103Z,45.16
2019-02-20T15:06:19.513Z,44.99
2019-02-20T15:08:48.301Z,44.59
2019-02-20T15:11:17.439Z,44.32
2019-02-20T15:13:46.196Z,44.64
2019-02-20T15:16:14.596Z,44.70
2019-02-20T15:18:42.977Z,45.15
2019-02-20T15:21:11.382Z,45.46
2019-02-20T15:23:40.256Z,45.70
2019-02-20T15:26:08.657Z,45.37
2019-02-20T15:28:37.526Z,45.10
2019-02-20T15:31:06.000Z,44.70
2019-02-20T15:33:34.416Z,45.75
2019-02-20T15:36:03.115Z,45.61
2019-02-20T15:38:31.506Z,45.06
2019-02-20T15:41:00.544Z,45.04
2019-02-20T15:43:28.962Z,44.68
2019-02-20T15:45:57.608Z,45.50
2019-02-20T15:48:26.109Z,45.10
2019-02-20T15:50:54.884Z,45.58
2019-02-20T15:53:23.268Z,45.87
2019-02-20T15:55:51.734Z,45.86
2019-02-20T15:58:20.608Z,46.48
2019-02-20T16:00:49.019Z,46.37
2019-02-20T16:03:17.692Z,46.51
2019-02-20T16:05:46.308Z,47.00
2019-02-20T16:08:14.737Z,47.20
2019-02-20T16:10:43.339Z,47.28
2019-02-20T16:13:11.900Z,47.35
2019-02-20T16:15:41.066Z,47.36
2019-02-20T16:18:09.757Z,47.60
2019-02-20T16:20:38.141Z,47.98
2019-02-20T16:23:06.530Z,48.30
2019-02-20T16:25:34.935Z,48.17
2019-02-20T16:28:03.425Z,48.45
2019-02-20T16:30:31.924Z,48.76
2019-02-20T16:33:00.961Z,49.22
2019-02-20T16:35:29.353Z,49.28
2019-02-20T16:37:58.080Z,49.59
2019-02-20T16:40:26.462Z,49.60
2019-02-20T16:42:54.863Z,49.14
2019-02-20T16:45:25.103Z,48.86
2019-02-20T16:47:53.859Z,49.28
2019-02-20T16:50:22.442Z,49.29
2019-02-20T16:52:50.831Z,49.57
2019-02-20T16:55:19.981Z,49.94
2019-02-20T16:57:56.365Z,49.81
2019-02-20T17:00:21.886Z,49.92
2019-02-20T17:02:50.574Z,50.12
2019-02-20T17:05:19.444Z,50.61
2019-02-20T17:07:48.249Z,50.76
2019-02-20T17:10:17.541Z,51.05
2019-02-20T17:12:45.992Z,51.41
2019-02-20T17:15:16.336Z,52.01
2019-02-20T17:17:45.162Z,52.03
2019-02-20T17:20:17.630Z,51.97
2019-02-20T17:22:45.903Z,52.07
2019-02-20T17:25:14.795Z,52.26
2019-02-20T17:27:43.195Z,52.54
2019-02-20T17:30:18.524Z,52.82
2019-02-20T17:32:47.435Z,53.09
2019-02-20T17:35:17.190Z,53.44
2019-02-20T17:37:45.976Z,53.91
2019-02-20T17:40:15.439Z,54.22
2019-02-20T17:42:44.056Z,54.47
2019-02-20T17:45:17.715Z,54.80
2019-02-20T17:47:46.470Z,54.99
2019-02-20T17:50:17.497Z,55.29
2019-02-20T17:52:45.905Z,55.58
2019-02-20T17:55:14.975Z,55.87
2019-02-20T17:57:43.695Z,56.33
2019-02-20T18:00:15.916Z,56.35
2019-02-20T18:02:44.634Z,56.13
2019-02-20T18:05:13.937Z,56.28
2019-02-20T18:07:48.582Z,56.54
2019-02-20T18:10:12.479Z,56.71
2019-02-20T18:12:40.882Z,56.91
2019-02-20T18:15:11.105Z,57.08
2019-02-20T18:17:39.500Z,57.25
2019-02-20T18:20:09.722Z,57.58
2019-02-20T18:22:38.526Z,57.93
2019-02-20T18:25:09.927Z,59.01
2019-02-20T18:27:38.723Z,58.95
2019-02-20T18:30:12.518Z,58.97
2019-02-20T18:32:41.103Z,58.97
2019-02-20T18:35:20.149Z,58.96
2019-02-20T18:37:48.530Z,59.06
2019-02-20T18:40:17.751Z,59.36
2019-02-20T18:42:46.461Z,59.36
2019-02-20T18:45:16.265Z,59.88
2019-02-20T18:47:44.955Z,59.88
2019-02-20T18:50:15.117Z,60.40
2019-02-20T18:52:43.661Z,60.55
2019-02-20T18:55:15.471Z,60.55
2019-02-20T18:57:43.870Z,60.81
2019-02-20T19:00:17.545Z,60.79
2019-02-20T19:02:46.267Z,60.88
2019-02-20T19:05:18.504Z,60.88
2019-02-20T19:07:46.162Z,60.93
2019-02-20T19:10:24.549Z,62.06
2019-02-20T19:13:08.063Z,61.89
2019-02-20T19:15:57.572Z,61.89
2019-02-20T19:18:34.807Z,61.97
2019-02-20T19:21:06.344Z,61.79
2019-02-20T19:24:02.403Z,61.79
2019-02-20T19:26:45.809Z,62.14
2019-02-20T19:29:44.317Z,61.69
2019-02-20T19:32:21.586Z,61.92
2019-02-20T19:34:55.949Z,62.18
2019-02-20T19:37:27.549Z,62.82
2019-02-20T19:40:20.692Z,62.97
2019-02-20T19:43:00.201Z,62.97
2019-02-20T19:45:43.848Z,63.18
2019-02-20T19:48:39.468Z,63.18
2019-02-20T19:51:11.068Z,63.35
2019-02-20T19:53:57.938Z,63.99
2019-02-20T19:56:32.121Z,63.99
2019-02-20T19:59:26.171Z,64.12
2019-02-20T20:01:57.701Z,64.21
2019-02-20T20:04:47.110Z,64.89
2019-02-20T20:07:38.061Z,64.89
2019-02-20T20:10:24.812Z,64.64
2019-02-20T20:12:56.371Z,64.64
2019-02-20T20:15:27.858Z,65.17
2019-02-20T20:18:24.819Z,65.32
2019-02-20T20:21:18.967Z,65.34
2019-02-20T20:24:07.071Z,65.69
2019-02-20T20:26:38.498Z,65.87
2019-02-20T20:29:26.632Z,66.33
2019-02-20T20:32:16.246Z,66.43
2019-02-20T20:35:04.141Z,66.32
2019-02-20T20:37:35.621Z,66.88
2019-02-20T20:40:15.984Z,67.34
2019-02-20T20:42:51.859Z,67.51
2019-02-20T20:45:38.737Z,67.51
2019-02-20T20:48:12.793Z,67.57
2019-02-20T20:51:02.760Z,67.77
2019-02-20T20:53:49.416Z,67.75
2019-02-20T20:56:29.732Z,67.85
2019-02-20T20:59:17.474Z,67.86
2019-02-20T21:01:54.935Z,68.13
2019-02-20T21:04:43.063Z,68.27
2019-02-20T21:07:29.723Z,68.24
2019-02-20T21:10:07.149Z,68.46
2019-02-20T21:12:59.844Z,68.30
2019-02-20T21:15:52.619Z,68.32
2019-02-20T21:18:41.606Z,68.49
2019-02-20T21:21:18.805Z,68.27
2019-02-20T21:23:56.583Z,68.27
2019-02-20T21:26:33.799Z,68.44
2019-02-20T21:29:28.150Z,68.47
2019-02-20T21:32:11.705Z,68.60
2019-02-20T21:34:52.184Z,68.78
2019-02-20T21:37:52.800Z,68.66
2019-02-20T21:40:38.744Z,68.90
2019-02-20T21:43:26.442Z,69.04
2019-02-20T21:46:19.186Z,69.11
2019-02-20T21:48:59.635Z,69.13
2019-02-20T21:51:46.353Z,69.14
2019-02-20T21:54:32.733Z,68.98
2019-02-20T21:57:10.203Z,69.01
2019-02-20T21:59:50.698Z,69.05
2019-02-20T22:02:25.182Z,69.23
2019-02-20T22:04:57.309Z,69.18
2019-02-20T22:07:47.170Z,69.52
2019-02-20T22:10:27.664Z,69.84
2019-02-20T22:13:08.140Z,69.77
2019-02-20T22:15:42.616Z,69.84
2019-02-20T22:18:16.989Z,70.14
2019-02-20T22:20:57.806Z,70.03
2019-02-20T22:23:32.068Z,70.19
2019-02-20T22:26:09.111Z,70.34
2019-02-20T22:28:46.347Z,70.42
2019-02-20T22:31:29.424Z,70.67
2019-02-20T22:34:06.637Z,70.64
2019-02-20T22:36:59.360Z,70.67
2019-02-20T22:39:48.983Z,70.66
2019-02-20T22:42:23.378Z,70.67
2019-02-20T22:45:03.726Z,70.70
2019-02-20T22:47:44.690Z,70.62
2019-02-20T22:50:43.236Z,70.47
2019-02-20T22:53:26.732Z,70.82
2019-02-20T22:56:01.248Z,70.71
2019-02-20T22:58:35.855Z,70.35
2019-02-20T23:01:13.858Z,70.81
2019-02-20T23:03:53.592Z,71.10
2019-02-20T23:06:40.506Z,71.09
2019-02-20T23:09:11.939Z,71.22
2019-02-20T23:11:50.853Z,71.01
2019-02-20T23:14:43.665Z,71.08
2019-02-20T23:17:12.259Z,71.29
2019-02-20T23:19:40.914Z,71.38
2019-02-20T23:22:09.806Z,71.51
2019-02-20T23:24:38.188Z,71.37
2019-02-20T23:27:06.578Z,71.17
2019-02-20T23:29:34.996Z,71.18
2019-02-20T23:32:03.733Z,71.13
2019-02-20T23:34:32.129Z,71.14
2019-02-20T23:37:00.795Z,71.08
2019-02-20T23:39:29.484Z,71.01
2019-02-20T23:41:57.982Z,70.83
2019-02-20T23:44:26.369Z,70.77
2019-02-20T23:46:54.772Z,70.71
2019-02-20T23:49:23.208Z,70.80
2019-02-20T23:51:51.605Z,70.81
2019-02-20T23:54:20.010Z,70.83
2019-02-20T23:56:48.397Z,70.75
2019-02-20T23:59:17.382Z,70.60
